Time;durP1;ratioP1;P1;durP2;ratioP2;P2;SDS_P1;SDS_P2;PMS_P1;PMS_P2;Temp;Humidity;BMP_temperature;BMP_pressure;BME280_temperature;BME280_humidity;BME280_pressure;Samples;Min_cycle;Max_cycle;Signal;HPM_P1;HPM_P2
2021/03/15 00:00:35;;;;;;;9.00;7.40;;;;;;;12.62;59.07;98511.28;5058854;28;20434;-77
2021/03/15 00:03:01;;;;;;;12.35;8.05;;;;;;;12.40;58.91;98471.13;5075454;28;20028;-76
2021/03/15 00:05:27;;;;;;;11.00;7.85;;;;;;;12.09;58.53;98421.72;5057416;28;20040;-79
2021/03/15 00:07:52;;;;;;;10.00;7.50;;;;;;;12.51;59.56;98488.16;5075297;28;20100;-80
2021/03/15 00:10:18;;;;;;;10.00;8.10;;;;;;;12.50;59.31;98497.13;5075216;28;20446;-80
2021/03/15 00:12:43;;;;;;;9.57;7.43;;;;;;;12.31;58.80;98471.63;5075199;28;20340;-80
2021/03/15 00:15:12;;;;;;;13.60;8.32;;;;;;;12.45;59.32;98490.84;5057300;28;20024;-78
2021/03/15 00:17:37;;;;;;;9.48;6.72;;;;;;;12.58;59.41;98510.09;5075032;28;20101;-80
2021/03/15 00:20:09;;;;;;;17.90;7.80;;;;;;;12.59;58.84;98511.72;5057121;28;20426;-80
2021/03/15 00:22:34;;;;;;;10.07;7.70;;;;;;;12.59;59.22;98498.47;5075143;28;20024;-77
2021/03/15 00:25:00;;;;;;;9.10;7.20;;;;;;;12.49;58.93;98495.50;5074928;28;20442;-79
2021/03/15 00:27:26;;;;;;;8.25;7.30;;;;;;;12.49;58.49;98476.97;5074838;28;20032;-77
2021/03/15 00:29:52;;;;;;;9.93;7.53;;;;;;;12.11;58.89;98424.13;5074943;28;20333;-79
2021/03/15 00:32:19;;;;;;;11.38;8.00;;;;;;;12.32;59.07;98468.75;5074897;28;20032;-77
2021/03/15 00:34:44;;;;;;;11.52;8.07;;;;;;;12.53;58.97;98495.88;5074689;28;20341;-80
2021/03/15 00:37:10;;;;;;;10.82;7.95;;;;;;;12.44;58.94;98498.00;5074669;28;20107;-77
2021/03/15 00:39:35;;;;;;;11.88;8.35;;;;;;;11.68;59.30;98357.84;5075172;28;20028;-79
2021/03/15 00:42:01;;;;;;;12.20;8.55;;;;;;;12.28;58.68;98454.34;5074855;28;20029;-77
2021/03/15 00:44:26;;;;;;;12.43;8.90;;;;;;;12.34;59.33;98457.94;5074675;28;20033;-78
2021/03/15 00:46:52;;;;;;;12.20;8.77;;;;;;;12.38;59.14;98481.13;5074774;28;20358;-79
2021/03/15 00:49:17;;;;;;;14.25;8.57;;;;;;;11.87;59.12;98401.91;5056736;28;20453;-79
2021/03/15 00:51:43;;;;;;;9.25;7.78;;;;;;;11.98;59.73;98432.16;5075461;28;20027;-76
2021/03/15 00:54:08;;;;;;;10.23;7.55;;;;;;;11.92;59.74;98404.75;5074777;28;20457;-76
2021/03/15 00:56:34;;;;;;;8.05;7.22;;;;;;;11.99;60.28;98404.69;5078310;28;20389;-77
2021/03/15 00:58:59;;;;;;;9.60;7.53;;;;;;;12.27;60.54;98438.66;5079231;28;20113;-79
2021/03/15 01:01:25;;;;;;;12.15;7.78;;;;;;;12.04;60.48;98395.09;5060890;28;20029;-79
2021/03/15 01:03:50;;;;;;;10.55;8.43;;;;;;;12.12;60.39;98399.28;5078935;28;20020;-78
2021/03/15 01:06:15;;;;;;;11.60;8.23;;;;;;;11.69;60.39;98325.09;5081897;28;20076;-78
2021/03/15 01:08:42;;;;;;;10.80;7.93;;;;;;;12.06;60.53;98387.75;5079536;28;20510;-79
2021/03/15 01:11:08;;;;;;;10.70;8.50;;;;;;;12.25;60.74;98398.38;5078838;28;20029;-79
2021/03/15 01:13:34;;;;;;;11.80;8.35;;;;;;;12.50;60.96;98435.41;5060811;28;20087;-78
2021/03/15 01:15:59;;;;;;;9.82;7.97;;;;;;;11.93;61.12;98353.47;5078532;28;20423;-78
2021/03/15 01:18:25;;;;;;;11.00;8.10;;;;;;;12.40;60.68;98406.78;5078370;28;20082;-78
2021/03/15 01:20:51;;;;;;;11.00;8.07;;;;;;;12.44;61.00;98412.47;5078341;28;20056;-79
2021/03/15 01:23:17;;;;;;;9.52;7.82;;;;;;;12.19;61.27;98372.78;5078291;28;20343;-78
2021/03/15 01:25:42;;;;;;;12.10;8.52;;;;;;;12.53;61.41;98443.75;5060549;28;20029;-78
2021/03/15 01:28:11;;;;;;;10.65;7.32;;;;;;;11.89;61.89;98315.25;5078056;28;20029;-78
2021/03/15 01:30:38;;;;;;;14.48;9.27;;;;;;;12.54;61.40;98415.44;5060510;28;20032;-77
2021/03/15 01:33:04;;;;;;;11.15;7.88;;;;;;;11.88;61.70;98316.22;5060338;28;20120;-80
2021/03/15 01:35:30;;;;;;;11.88;8.65;;;;;;;12.25;61.96;98366.63;5077959;28;20032;-80
2021/03/15 01:37:56;;;;;;;10.05;8.48;;;;;;;12.24;61.80;98352.56;5078013;28;20032;-79
2021/03/15 01:40:23;;;;;;;10.15;8.32;;;;;;;12.57;62.29;98404.41;5078040;28;20099;-79
2021/03/15 01:42:48;;;;;;;8.55;7.60;;;;;;;11.71;62.03;98268.34;5078023;28;20431;-78
2021/03/15 01:45:14;;;;;;;10.73;8.43;;;;;;;12.24;62.01;98346.47;5077826;28;20031;-79
2021/03/15 01:47:42;;;;;;;12.15;8.55;;;;;;;12.51;62.21;98382.25;5060103;28;20025;-77
2021/03/15 01:50:09;;;;;;;10.35;8.40;;;;;;;12.20;62.00;98343.47;5077582;28;20077;-79
2021/03/15 01:52:35;;;;;;;10.07;7.82;;;;;;;12.45;62.13;98374.38;5077736;28;20171;-77
2021/03/15 01:55:02;;;;;;;14.20;7.88;;;;;;;12.42;61.73;98378.28;5077769;28;20426;-78
2021/03/15 01:57:28;;;;;;;11.77;8.38;;;;;;;12.46;62.23;98379.44;5077615;28;20024;-79
2021/03/15 01:59:53;;;;;;;9.27;8.27;;;;;;;12.28;61.60;98337.06;5077724;28;20020;-79
2021/03/15 02:02:19;;;;;;;16.02;10.65;;;;;;;12.09;61.72;98315.88;5077793;28;20044;-79
2021/03/15 02:04:45;;;;;;;12.05;9.45;;;;;;;12.16;61.82;98328.22;5059899;28;20020;-79
2021/03/15 02:07:11;;;;;;;12.35;8.98;;;;;;;12.13;61.48;98300.38;5077242;28;20030;-79
2021/03/15 02:09:36;;;;;;;13.25;9.82;;;;;;;12.28;61.29;98331.78;5077362;28;20047;-78
2021/03/15 02:12:35;;;;;;;10.63;8.70;;;;;;;12.53;61.46;98377.53;5077489;28;20028;-81
2021/03/15 02:15:23;;;;;;;48.10;22.27;;;;;;;12.48;61.69;98374.75;5059651;28;20120;-78
2021/03/15 02:17:54;;;;;;;52.10;24.95;;;;;;;12.41;62.12;98366.88;5077602;28;20028;-79
2021/03/15 02:20:41;;;;;;;28.90;15.77;;;;;;;12.34;62.20;98362.66;5059485;28;20020;-78
2021/03/15 02:23:13;;;;;;;18.75;11.27;;;;;;;12.29;61.96;98365.97;5077326;28;20486;-79
2021/03/15 02:25:45;;;;;;;13.30;9.52;;;;;;;12.29;62.54;98362.50;5077158;28;20349;-78
2021/03/15 02:28:42;;;;;;;12.35;9.27;;;;;;;12.25;61.62;98356.03;5076995;28;20436;-81
2021/03/15 02:31:36;;;;;;;14.65;10.27;;;;;;;12.20;62.09;98350.59;5045817;28;20074;-79
2021/03/15 02:34:20;;;;;;;13.52;9.80;;;;;;;12.15;61.79;98359.19;5059302;28;20028;-78
2021/03/15 02:36:48;;;;;;;13.93;9.90;;;;;;;12.15;62.21;98369.75;5076897;28;20051;-79
2021/03/15 02:39:21;;;;;;;13.65;10.18;;;;;;;12.14;62.17;98357.56;5076901;28;20025;-79
2021/03/15 02:41:49;;;;;;;14.32;10.85;;;;;;;12.14;62.48;98362.03;5077149;28;20450;-78
2021/03/15 02:44:16;;;;;;;15.48;11.13;;;;;;;12.11;62.15;98362.47;5076803;28;20020;-80
2021/03/15 02:46:44;;;;;;;14.70;10.98;;;;;;;11.65;62.43;98308.84;5059147;28;20016;-80
2021/03/15 02:49:13;;;;;;;16.77;12.88;;;;;;;11.85;62.38;98332.53;5058761;28;20030;-80
2021/03/15 02:51:41;;;;;;;16.40;12.30;;;;;;;10.72;62.43;98160.72;5077580;28;20036;-80
2021/03/15 02:54:10;;;;;;;16.15;11.30;;;;;;;11.98;62.92;98366.03;5079682;28;20078;-80
2021/03/15 02:56:44;;;;;;;15.70;11.27;;;;;;;11.70;62.76;98316.97;5076836;28;20021;-79
2021/03/15 02:59:12;;;;;;;14.75;11.27;;;;;;;11.97;62.64;98356.47;5076828;28;20466;-79
2021/03/15 03:01:40;;;;;;;15.07;10.73;;;;;;;11.80;62.96;98327.09;5058710;28;20016;-79
2021/03/15 03:04:08;;;;;;;16.05;10.73;;;;;;;11.97;62.72;98357.28;5076718;28;20028;-79
2021/03/15 03:06:37;;;;;;;15.13;11.25;;;;;;;11.48;62.49;98280.53;5058665;28;20016;-80
2021/03/15 03:09:06;;;;;;;14.38;12.07;;;;;;;11.95;63.19;98351.41;5058597;28;20024;-78
2021/03/15 03:11:32;;;;;;;15.00;11.48;;;;;;;11.89;63.09;98341.69;5076243;28;20021;-78
2021/03/15 03:13:59;;;;;;;16.65;13.00;;;;;;;11.78;62.59;98315.91;5058441;28;20085;-77
2021/03/15 03:16:30;;;;;;;16.60;12.57;;;;;;;11.46;62.92;98260.41;5075805;28;20025;-77
2021/03/15 03:18:57;;;;;;;15.25;12.32;;;;;;;11.84;63.43;98324.81;5075415;28;20100;-80
2021/03/15 03:21:25;;;;;;;13.70;11.30;;;;;;;11.52;62.41;98268.50;5075919;28;20462;-80
2021/03/15 03:23:52;;;;;;;15.55;11.32;;;;;;;11.96;62.34;98339.81;5058284;28;20025;-80
2021/03/15 03:26:23;;;;;;;15.00;11.48;;;;;;;11.26;62.94;98230.69;5075919;28;20415;-79
2021/03/15 03:28:50;;;;;;;14.80;11.45;;;;;;;11.98;63.80;98332.47;5076064;28;20426;-79
2021/03/15 03:31:17;;;;;;;13.98;10.25;;;;;;;11.90;63.35;98311.56;5075763;28;20521;-79
2021/03/15 03:33:43;;;;;;;17.02;10.90;;;;;;;11.97;63.61;98314.16;5058218;28;20240;-80
2021/03/15 03:36:09;;;;;;;15.23;10.32;;;;;;;12.01;63.07;98307.41;5058013;28;20028;-78
2021/03/15 03:38:34;;;;;;;12.80;9.63;;;;;;;12.02;62.87;98299.25;5075543;28;20021;-79
2021/03/15 03:41:00;;;;;;;14.73;10.27;;;;;;;11.68;62.81;98244.16;5075763;28;20032;-79
2021/03/15 03:43:26;;;;;;;13.68;10.32;;;;;;;11.85;63.16;98261.13;5075504;28;20338;-78
2021/03/15 03:45:51;;;;;;;13.57;8.95;;;;;;;11.71;63.58;98241.91;5075543;28;20021;-79
2021/03/15 03:48:16;;;;;;;11.95;10.73;;;;;;;11.86;63.75;98254.81;5075303;28;20021;-77
2021/03/15 03:50:42;;;;;;;13.95;9.43;;;;;;;12.00;63.42;98290.72;5075533;28;20042;-77
2021/03/15 03:53:14;;;;;;;12.48;9.07;;;;;;;11.72;63.49;98226.84;5075382;28;20055;-78
2021/03/15 03:55:55;;;;;;;9.93;8.18;;;;;;;12.15;63.56;98281.63;5057660;28;20082;-79
2021/03/15 03:58:23;;;;;;;10.93;7.97;;;;;;;11.62;62.76;98177.09;5057595;28;20040;-77
2021/03/15 04:00:52;;;;;;;11.93;7.90;;;;;;;12.32;63.55;98282.69;5075631;28;20065;-77
2021/03/15 04:03:19;;;;;;;10.13;7.18;;;;;;;11.60;64.26;98157.19;5077859;28;20101;-80
2021/03/15 04:05:55;;;;;;;9.95;7.50;;;;;;;12.12;63.87;98229.16;5075349;28;20029;-77
2021/03/15 04:08:30;;;;;;;11.45;7.53;;;;;;;12.48;63.35;98274.16;5075189;28;20082;-79
2021/03/15 04:10:58;;;;;;;15.63;7.03;;;;;;;11.90;63.63;98176.69;5075275;28;20020;-80
2021/03/15 04:13:25;;;;;;;9.35;7.40;;;;;;;12.23;63.59;98216.00;5075055;28;20035;-78
2021/03/15 04:15:51;;;;;;;12.30;7.47;;;;;;;12.36;63.64;98237.03;5075110;28;20082;-79
2021/03/15 04:18:19;;;;;;;11.27;7.05;;;;;;;12.55;63.25;98260.84;5057271;28;20115;-77
2021/03/15 04:20:48;;;;;;;11.85;7.40;;;;;;;12.57;63.96;98259.59;5075126;28;20048;-78
2021/03/15 04:23:20;;;;;;;9.95;7.32;;;;;;;12.55;64.11;98258.19;5074888;28;20025;-77
2021/03/15 04:25:48;;;;;;;9.73;7.22;;;;;;;12.38;63.95;98240.25;5057142;28;20505;-79
2021/03/15 04:28:14;;;;;;;12.77;6.82;;;;;;;12.28;64.22;98210.03;5057094;28;20155;-79
2021/03/15 04:30:42;;;;;;;9.10;6.78;;;;;;;12.19;64.41;98203.44;5057134;28;20028;-78
2021/03/15 04:33:10;;;;;;;13.55;8.00;;;;;;;12.11;64.59;98193.94;5075033;28;20025;-78
2021/03/15 04:35:36;;;;;;;11.85;7.90;;;;;;;12.51;64.27;98246.41;5058157;28;20078;-76
2021/03/15 04:38:05;;;;;;;14.45;7.95;;;;;;;12.26;64.55;98204.16;5075433;28;20028;-78
2021/03/15 04:40:32;;;;;;;11.05;7.15;;;;;;;12.15;64.13;98195.13;5074783;28;20028;-77
2021/03/15 04:43:02;;;;;;;13.10;7.97;;;;;;;12.40;63.31;98224.16;5075038;28;20097;-78
2021/03/15 04:45:32;;;;;;;14.45;7.85;;;;;;;12.59;64.06;98251.41;5074667;28;20112;-78
2021/03/15 04:48:00;;;;;;;12.27;7.10;;;;;;;11.88;63.59;98148.81;5075110;28;20033;-78
2021/03/15 04:50:27;;;;;;;9.02;5.80;;;;;;;12.41;63.94;98218.63;5074790;28;20154;-77
2021/03/15 04:52:53;;;;;;;7.97;5.90;;;;;;;12.60;64.02;98245.09;5074604;28;20032;-77
2021/03/15 04:55:19;;;;;;;10.27;5.97;;;;;;;12.62;63.77;98249.13;5056629;28;20032;-77
2021/03/15 04:57:46;;;;;;;10.93;6.50;;;;;;;12.58;63.04;98207.44;5074561;28;20328;-77
2021/03/15 05:00:13;;;;;;;10.65;6.80;;;;;;;12.54;63.55;98209.72;5074939;28;20093;-79
2021/03/15 05:02:42;;;;;;;8.68;5.82;;;;;;;11.98;63.64;98127.97;5075089;28;20020;-79
2021/03/15 05:05:09;;;;;;;11.07;6.07;;;;;;;12.67;63.49;98217.53;5057016;28;20024;-78
2021/03/15 05:07:37;;;;;;;9.05;5.32;;;;;;;12.27;63.53;98161.59;5074444;28;20020;-78
2021/03/15 05:10:04;;;;;;;8.43;5.43;;;;;;;12.13;63.25;98161.97;5077822;28;20025;-78
2021/03/15 05:12:31;;;;;;;9.15;5.25;;;;;;;12.58;63.76;98205.59;5079008;28;20142;-77
2021/03/15 05:14:57;;;;;;;8.85;5.10;;;;;;;11.97;63.68;98103.34;5075094;28;20404;-78
2021/03/15 05:17:23;;;;;;;11.18;5.70;;;;;;;12.48;63.14;98176.19;5074537;28;20362;-79
2021/03/15 05:19:49;;;;;;;7.43;5.10;;;;;;;12.58;63.30;98208.25;5074724;28;20024;-77
2021/03/15 05:22:16;;;;;;;14.02;6.70;;;;;;;12.78;62.88;98234.50;5056591;28;20033;-77
2021/03/15 05:24:42;;;;;;;6.40;5.10;;;;;;;12.58;63.13;98187.06;5074628;28;20095;-77
2021/03/15 05:27:10;;;;;;;7.28;6.00;;;;;;;12.66;62.92;98194.72;5074384;28;20024;-78
2021/03/15 05:29:37;;;;;;;7.72;5.57;;;;;;;12.46;63.43;98165.03;5074323;28;20032;-76
2021/03/15 05:32:05;;;;;;;10.77;5.47;;;;;;;12.64;63.39;98180.91;5074465;28;20343;-77
2021/03/15 05:34:31;;;;;;;9.63;5.45;;;;;;;12.88;63.27;98210.94;5074206;28;20024;-77
2021/03/15 05:37:00;;;;;;;7.45;4.82;;;;;;;12.82;62.60;98206.53;5056739;28;20066;-79
2021/03/15 05:39:26;;;;;;;9.80;5.00;;;;;;;12.32;62.80;98124.69;5074156;28;20082;-78
2021/03/15 05:41:57;;;;;;;6.72;5.25;;;;;;;12.95;62.95;98208.19;5076553;28;20028;-79
2021/03/15 05:44:48;;;;;;;12.07;6.80;;;;;;;12.57;63.11;98139.63;5078100;28;20032;-77
2021/03/15 05:47:35;;;;;;;11.90;7.30;;;;;;;13.13;62.62;98213.41;5077978;28;20096;-78
2021/03/15 05:50:29;;;;;;;14.48;8.07;;;;;;;13.12;61.95;98193.25;5060461;28;20033;-79
2021/03/15 05:53:03;;;;;;;13.20;7.28;;;;;;;13.35;62.12;98205.78;5078132;28;20033;-79
2021/03/15 05:55:59;;;;;;;11.13;7.85;;;;;;;13.24;61.96;98185.34;5077845;28;20029;-78
2021/03/15 05:58:48;;;;;;;16.08;9.65;;;;;;;13.39;61.62;98198.19;5059886;28;20037;-79
2021/03/15 06:01:31;;;;;;;11.50;7.15;;;;;;;13.40;61.71;98197.16;5064278;28;20032;-77
2021/03/15 06:04:53;;;;;;;14.68;7.60;;;;;;;12.90;61.65;98121.44;5077806;28;20031;-78
2021/03/15 06:07:25;;;;;;;;;;;;;;;13.39;61.50;98206.16;4977456;28;20030;-78
2021/03/15 06:10:08;;;;;;;13.77;7.05;;;;;;;13.53;61.65;98192.44;4960821;28;19933;-76
2021/03/15 06:13:05;;;;;;;8.68;5.97;;;;;;;13.56;61.21;98176.06;5052304;28;20035;-79
2021/03/15 06:15:40;;;;;;;11.55;7.32;;;;;;;13.65;60.76;98187.94;5042416;28;20024;-75
2021/03/15 06:18:07;;;;;;;13.63;7.15;;;;;;;13.66;60.60;98199.38;5077469;28;20201;-76
2021/03/15 06:20:35;;;;;;;14.38;7.25;;;;;;;13.68;60.56;98192.78;5084367;28;20036;-77
2021/03/15 06:23:02;;;;;;;14.43;7.28;;;;;;;13.71;60.58;98198.66;5079789;28;20025;-78
2021/03/15 06:25:29;;;;;;;9.27;6.30;;;;;;;13.40;60.21;98136.19;5077514;28;20442;-76
2021/03/15 06:27:55;;;;;;;11.90;6.07;;;;;;;13.32;60.43;98111.59;5048793;28;20312;-76
2021/03/15 06:30:22;;;;;;;15.90;6.32;;;;;;;13.82;59.87;98174.00;5060620;28;20032;-75
2021/03/15 06:32:57;;;;;;;10.75;6.93;;;;;;;13.87;59.78;98172.25;5061143;28;20029;-76
2021/03/15 06:35:27;;;;;;;9.38;6.40;;;;;;;13.92;59.28;98168.91;5077022;28;20036;-77
2021/03/15 06:37:54;;;;;;;9.02;6.05;;;;;;;13.77;59.42;98142.84;5067118;28;20112;-78
2021/03/15 06:40:20;;;;;;;11.25;5.43;;;;;;;14.09;58.66;98166.34;5056726;28;20339;-76
2021/03/15 06:42:48;;;;;;;10.18;5.15;;;;;;;14.09;58.72;98174.28;5056918;28;20017;-78
2021/03/15 06:45:15;;;;;;;9.88;5.90;;;;;;;14.16;58.41;98164.38;5056732;28;20454;-77
2021/03/15 06:47:42;;;;;;;8.35;5.05;;;;;;;14.27;58.00;98161.69;5056658;28;20083;-77
2021/03/15 06:50:12;;;;;;;7.28;4.40;;;;;;;14.30;57.08;98144.50;5066857;28;20029;-80
2021/03/15 06:52:53;;;;;;;10.13;4.90;;;;;;;14.42;57.02;98155.91;5070810;28;20035;-76
2021/03/15 06:55:35;;;;;;;8.07;4.40;;;;;;;14.50;57.01;98144.91;5045868;28;20116;-76
2021/03/15 06:58:03;;;;;;;7.30;4.85;;;;;;;14.60;56.60;98155.72;5052559;28;20048;-80
2021/03/15 07:00:30;;;;;;;8.70;4.00;;;;;;;14.57;56.18;98136.78;5075221;28;20111;-78
2021/03/15 07:03:01;;;;;;;11.60;4.15;;;;;;;14.59;56.18;98138.16;5038666;28;20021;-79
2021/03/15 07:05:31;;;;;;;14.23;5.70;;;;;;;14.77;56.56;98152.28;5070767;28;20437;-78
2021/03/15 07:08:00;;;;;;;8.30;4.90;;;;;;;14.62;56.28;98113.78;5092836;28;20020;-78
2021/03/15 07:10:29;;;;;;;7.45;4.75;;;;;;;14.85;56.47;98151.91;5077441;28;20039;-77
2021/03/15 07:13:12;;;;;;;7.18;3.60;;;;;;;14.67;56.11;98118.38;5058696;28;20087;-77
2021/03/15 07:15:39;;;;;;;13.63;5.13;;;;;;;14.74;55.84;98140.28;5057829;28;20032;-76
2021/03/15 07:18:14;;;;;;;8.75;4.75;;;;;;;14.88;55.71;98152.25;5064812;28;20033;-76
2021/03/15 07:20:41;;;;;;;11.32;5.85;;;;;;;14.43;56.00;98083.16;5062455;28;20093;-76
2021/03/15 07:23:06;;;;;;;13.38;5.97;;;;;;;14.87;56.17;98149.84;5057553;28;20032;-77
2021/03/15 07:25:32;;;;;;;10.35;5.97;;;;;;;14.79;55.63;98132.41;5071114;28;20028;-77
2021/03/15 07:27:57;;;;;;;10.52;5.18;;;;;;;14.81;55.18;98154.22;5044561;28;20350;-77
2021/03/15 07:30:29;;;;;;;8.40;5.43;;;;;;;14.82;55.44;98145.22;5072598;28;20029;-76
2021/03/15 07:32:57;;;;;;;12.63;5.90;;;;;;;14.84;55.67;98148.44;5052751;28;20036;-75
2021/03/15 07:35:25;;;;;;;17.17;6.32;;;;;;;14.22;55.74;98039.47;5038933;28;20029;-76
2021/03/15 07:37:51;;;;;;;10.25;5.18;;;;;;;14.85;55.69;98138.63;5059011;28;20078;-77
2021/03/15 07:40:39;;;;;;;11.25;6.97;;;;;;;14.89;55.62;98121.19;5063962;28;20040;-76
2021/03/15 07:43:10;;;;;;;10.57;4.88;;;;;;;14.88;55.22;98100.97;5057814;28;20032;-76
2021/03/15 07:45:42;;;;;;;9.65;5.30;;;;;;;14.93;55.49;98106.34;5058511;28;20048;-76
2021/03/15 07:48:22;;;;;;;9.93;5.03;;;;;;;15.17;54.60;98109.66;5058993;28;20033;-76
2021/03/15 07:51:00;;;;;;;7.80;5.43;;;;;;;15.06;54.48;98089.28;5071880;28;20107;-77
2021/03/15 07:53:37;;;;;;;10.50;6.78;;;;;;;15.17;54.47;98104.34;5064071;28;20028;-77
2021/03/15 07:56:05;;;;;;;9.02;5.75;;;;;;;15.15;54.63;98085.97;5065293;28;20033;-77
2021/03/15 07:58:35;;;;;;;10.90;6.38;;;;;;;15.33;54.14;98095.53;5036983;28;20048;-76
2021/03/15 08:01:04;;;;;;;11.52;4.88;;;;;;;15.18;53.72;98048.28;5059025;28;20028;-78
2021/03/15 08:03:30;;;;;;;8.32;5.07;;;;;;;15.18;53.23;98045.63;5069974;28;20174;-77
2021/03/15 08:05:59;;;;;;;6.20;3.70;;;;;;;15.15;52.77;98008.06;5074763;28;20020;-75
2021/03/15 08:08:25;;;;;;;7.72;4.05;;;;;;;15.67;52.14;98072.41;5072477;28;20039;-77
2021/03/15 08:10:51;;;;;;;4.82;3.08;;;;;;;15.64;50.91;98046.28;5042057;28;20029;-79
2021/03/15 08:13:22;;;;;;;8.40;4.53;;;;;;;15.48;50.84;98002.66;5036874;28;20017;-78
2021/03/15 08:15:51;;;;;;;9.07;3.53;;;;;;;15.94;49.72;98077.78;5054836;28;20025;-77
2021/03/15 08:18:22;;;;;;;6.90;3.95;;;;;;;16.08;50.18;98064.91;5073398;28;20028;-78
2021/03/15 08:20:51;;;;;;;10.35;3.55;;;;;;;16.10;49.78;98036.16;5074989;28;20020;-76
2021/03/15 08:23:19;;;;;;;6.90;4.03;;;;;;;15.97;49.38;97993.97;5056472;28;20056;-78
2021/03/15 08:25:49;;;;;;;7.25;3.38;;;;;;;16.52;49.27;98047.78;5062015;28;20056;-77
2021/03/15 08:28:15;;;;;;;6.72;3.33;;;;;;;16.43;48.18;98004.03;5054349;28;20021;-78
2021/03/15 08:30:53;;;;;;;4.80;3.20;;;;;;;16.73;47.24;98024.81;5036712;28;20025;-79
2021/03/15 08:33:19;;;;;;;4.43;3.55;;;;;;;16.71;46.15;97994.16;5066804;28;20028;-79
2021/03/15 08:35:45;;;;;;;8.13;3.40;;;;;;;16.83;46.19;98034.75;5055841;28;20036;-76
2021/03/15 08:38:15;;;;;;;7.38;4.20;;;;;;;16.80;46.02;98003.28;5066211;28;20032;-79
2021/03/15 08:40:43;;;;;;;10.52;4.40;;;;;;;16.85;45.73;98027.31;5054365;28;20021;-78
2021/03/15 08:43:17;;;;;;;7.53;4.10;;;;;;;16.82;46.01;98033.94;5060116;28;20035;-77
2021/03/15 08:45:54;;;;;;;7.80;5.22;;;;;;;16.83;45.58;98029.44;5059962;28;20033;-77
2021/03/15 08:48:41;;;;;;;7.25;5.18;;;;;;;16.37;45.97;97970.41;5054041;28;20038;-77
2021/03/15 08:51:11;;;;;;;9.07;4.40;;;;;;;16.67;46.26;98011.72;5028800;28;20037;-79
2021/03/15 08:53:37;;;;;;;8.52;6.72;;;;;;;16.67;46.31;98011.72;5043489;28;20099;-79
2021/03/15 08:56:17;;;;;;;8.65;5.22;;;;;;;16.76;46.70;98018.19;5062606;28;20403;-77
2021/03/15 08:58:50;;;;;;;6.47;5.00;;;;;;;16.77;46.18;98011.78;5057173;28;20060;-77
2021/03/15 09:01:19;;;;;;;5.15;4.05;;;;;;;16.90;45.90;98006.03;5062405;28;20021;-76
2021/03/15 09:03:52;;;;;;;6.82;4.43;;;;;;;16.68;44.83;97960.03;5055500;28;20454;-76
2021/03/15 09:06:30;;;;;;;11.43;5.93;;;;;;;17.03;44.65;98000.25;5055607;28;20464;-77
2021/03/15 09:09:04;;;;;;;7.38;5.70;;;;;;;17.09;44.13;98001.91;5036403;28;20438;-77
2021/03/15 09:11:36;;;;;;;11.65;4.80;;;;;;;17.03;43.80;97994.91;5035816;28;20032;-77
2021/03/15 09:14:14;;;;;;;5.95;4.25;;;;;;;17.02;44.60;97976.50;5036227;28;20040;-77
2021/03/15 09:16:47;;;;;;;8.55;4.53;;;;;;;16.83;43.56;97952.13;5059357;28;20063;-75
2021/03/15 09:19:27;;;;;;;8.20;5.18;;;;;;;17.28;44.04;97988.94;5069784;28;20342;-76
2021/03/15 09:21:54;;;;;;;5.57;4.13;;;;;;;17.19;43.72;97941.69;5062843;28;20209;-75
2021/03/15 09:24:56;;;;;;;6.43;3.97;;;;;;;17.56;43.20;97971.72;5062563;28;20032;-77
2021/03/15 09:27:28;;;;;;;5.63;3.55;;;;;;;17.38;43.35;97943.63;5051223;28;20025;-78
2021/03/15 09:30:11;;;;;;;8.90;4.07;;;;;;;17.17;42.73;97904.59;5060531;28;20032;-78
2021/03/15 09:32:40;;;;;;;6.40;3.88;;;;;;;17.65;42.70;97962.16;5051712;28;20040;-75
2021/03/15 09:35:21;;;;;;;5.57;4.20;;;;;;;17.28;42.84;97916.91;5068208;28;20090;-77
2021/03/15 09:37:48;;;;;;;11.77;4.40;;;;;;;17.70;42.63;97964.06;5045914;28;20033;-77
2021/03/15 09:40:15;;;;;;;8.00;4.55;;;;;;;17.60;42.65;97945.31;5047648;28;20037;-77
2021/03/15 09:42:45;;;;;;;9.30;4.50;;;;;;;17.55;42.80;97931.94;5053799;28;20024;-78
2021/03/15 09:45:21;;;;;;;7.10;4.60;;;;;;;17.59;42.67;97927.69;5065251;28;20017;-77
2021/03/15 09:47:47;;;;;;;8.05;4.75;;;;;;;17.49;42.54;97936.47;5062351;28;20052;-78
2021/03/15 09:50:21;;;;;;;6.10;3.88;;;;;;;17.28;42.78;97890.25;5065577;28;20056;-76
2021/03/15 09:52:46;;;;;;;5.18;4.35;;;;;;;17.63;42.88;97921.56;5072649;28;20443;-76
2021/03/15 09:55:12;;;;;;;6.07;4.10;;;;;;;17.38;42.64;97870.81;5051815;28;20021;-77
2021/03/15 09:57:37;;;;;;;9.02;4.80;;;;;;;17.58;42.14;97870.84;5057800;28;20029;-76
2021/03/15 10:00:07;;;;;;;7.60;4.93;;;;;;;17.69;41.65;97890.38;5051152;28;20044;-77
2021/03/15 10:02:33;;;;;;;4.95;3.35;;;;;;;18.00;41.15;97932.13;5052369;28;20354;-78
2021/03/15 10:04:58;;;;;;;5.28;3.42;;;;;;;18.07;40.58;97919.31;5072098;28;20028;-77
2021/03/15 10:07:24;;;;;;;6.47;3.53;;;;;;;17.93;40.99;97918.22;5042978;28;20029;-76
2021/03/15 10:09:49;;;;;;;5.63;3.58;;;;;;;17.87;41.16;97895.25;5065546;28;20029;-76
2021/03/15 10:12:14;;;;;;;7.32;4.47;;;;;;;17.91;41.14;97909.66;5059279;28;20025;-77
2021/03/15 10:14:40;;;;;;;5.18;3.85;;;;;;;17.68;41.28;97888.78;5056566;28;20025;-77
2021/03/15 10:17:06;;;;;;;5.90;3.90;;;;;;;17.69;41.52;97895.72;5056767;28;20041;-77
2021/03/15 10:19:32;;;;;;;7.70;3.60;;;;;;;17.45;41.91;97848.16;5067454;28;20054;-77
2021/03/15 10:22:16;;;;;;;6.15;4.47;;;;;;;17.70;42.13;97905.34;5042751;28;20121;-77
2021/03/15 10:24:43;;;;;;;8.93;4.70;;;;;;;17.44;42.55;97853.75;5056235;28;20115;-76
2021/03/15 10:27:15;;;;;;;8.05;4.15;;;;;;;17.89;43.02;97870.94;5072080;28;20338;-78
2021/03/15 10:29:41;;;;;;;6.30;4.15;;;;;;;17.76;42.84;97826.88;5060651;28;20024;-79
2021/03/15 10:32:07;;;;;;;8.32;4.68;;;;;;;18.02;42.81;97825.03;5056241;28;20017;-78
2021/03/15 10:34:33;;;;;;;8.75;3.60;;;;;;;18.29;41.96;97825.53;5040690;28;20078;-77
2021/03/15 10:36:59;;;;;;;8.15;3.83;;;;;;;18.13;40.98;97783.09;5056408;28;20017;-77
2021/03/15 10:39:26;;;;;;;8.95;4.75;;;;;;;18.73;39.85;97820.41;5064882;28;20116;-77
2021/03/15 10:41:52;;;;;;;7.78;4.20;;;;;;;18.76;39.15;97845.78;5069515;28;20021;-77
2021/03/15 10:44:22;;;;;;;9.25;4.53;;;;;;;18.68;39.39;97833.00;5065031;28;20022;-79
2021/03/15 10:46:51;;;;;;;7.03;3.72;;;;;;;18.37;39.58;97803.59;5063918;28;20036;-80
2021/03/15 10:49:25;;;;;;;7.10;3.53;;;;;;;18.49;39.58;97813.19;5058239;28;20388;-77
2021/03/15 10:51:53;;;;;;;4.75;3.53;;;;;;;18.66;39.91;97819.09;5065309;28;20064;-78
2021/03/15 10:54:37;;;;;;;7.40;3.65;;;;;;;18.51;38.88;97744.25;5070494;28;20355;-79
2021/03/15 10:57:19;;;;;;;6.10;4.07;;;;;;;18.90;39.38;97821.94;5052759;28;20031;-77
2021/03/15 10:59:47;;;;;;;9.60;3.67;;;;;;;18.77;39.56;97819.84;5037950;28;20045;-78
2021/03/15 11:02:27;;;;;;;7.68;4.82;;;;;;;18.55;39.60;97766.69;5039801;28;20025;-77
2021/03/15 11:04:55;;;;;;;7.20;3.67;;;;;;;18.66;39.43;97792.38;5056927;28;20048;-77
2021/03/15 11:07:21;;;;;;;5.07;3.80;;;;;;;18.56;39.83;97785.13;5038142;28;20423;-78
2021/03/15 11:09:59;;;;;;;6.70;4.03;;;;;;;18.32;39.79;97744.03;5037696;28;20090;-77
2021/03/15 11:12:45;;;;;;;7.70;4.60;;;;;;;18.52;40.56;97788.59;5038036;28;20106;-77
2021/03/15 11:15:23;;;;;;;9.93;5.00;;;;;;;18.62;40.53;97786.75;5056316;28;20351;-76
2021/03/15 11:18:00;;;;;;;7.88;4.60;;;;;;;18.80;40.22;97787.22;5055710;28;20029;-78
2021/03/15 11:20:53;;;;;;;7.10;4.05;;;;;;;18.87;39.85;97777.84;5055166;28;20038;-77
2021/03/15 11:23:35;;;;;;;6.43;3.10;;;;;;;18.80;39.55;97763.97;5057969;28;20039;-76
2021/03/15 11:26:12;;;;;;;10.70;4.85;;;;;;;18.83;40.03;97760.75;5074448;28;20038;-78
2021/03/15 11:28:47;;;;;;;8.43;4.55;;;;;;;18.52;40.43;97716.44;5046839;28;21613;-79
2021/03/15 11:31:15;;;;;;;9.60;5.45;;;;;;;18.82;40.68;97753.00;5055373;28;20343;-77
2021/03/15 11:33:41;;;;;;;11.07;5.43;;;;;;;18.90;40.60;97749.75;5071851;28;20100;-78
2021/03/15 11:36:17;;;;;;;7.25;4.80;;;;;;;18.81;40.37;97744.16;5075283;28;20113;-78
2021/03/15 11:39:06;;;;;;;8.95;5.20;;;;;;;18.82;40.05;97737.75;5052585;28;20024;-77
2021/03/15 11:41:37;;;;;;;7.85;4.80;;;;;;;18.65;40.07;97692.66;5058866;28;20059;-77
2021/03/15 11:44:02;;;;;;;7.93;4.63;;;;;;;18.90;39.85;97741.72;5058183;28;20451;-77